Etusivu
METAR-TAF:

METAR-TAF

Lentoasemat :

Oelwein Municipal Airport

Oelwein, Iowa, Yhdysvallat

Leveyspiiri: 42-40-51N, Pituuspiiri: 091-58-28W, korkeus merenpinnasta: 328 m

Tämänhetkinen sää

Tämä raportti tehtiin 25 minuuttia sitten, kello 08.35 UTC
Tuuli 10 kn idästä/kaakosta
Lämpötila -2°C
Kosteus 100%
Ilmanpaine 1015 hPa
Näkyvyys: 16.1 km
Hajonneita pilviä 7500 ft:n korkeudessa
Pilvistä 8500 ft:n korkeudessa

METAR: KOLZ 170835Z AUTO 12010KT 10SM BKN075 OVC085 M02/M02 A2998 RMK A01

Aika: 03:00 (09:00 UTC)


TAF: puuttuu

Säähavainnot ja -ennusteet yli 4000 lentoasemalta (METAR- ja TAF-raportit).

Käytössä olevat sääasemat on merkitty karttaan keltaisilla ja punaisilla pisteillä.

Aseta hiiri pisteen päälle nähdäksesi sääaseman nimen.

Klikkaa sitten nähdäksesi säähavainnot ja -ennusteet.

Kartan vaihtaminen: klikkaa mustalla rastilla varustettuja vihreitä pisteitä, niin voit zoomata sisään; viivalla varustettua vihreää pistettä, niin voit zoomata ulos tai vihreitä nuolia, niin pääset viereisille kartoille.


METAR-TAF: